createdAt,value
2022-12-11T00:01:43.462Z,10.07
2022-12-11T00:05:25.225Z,10.60
2022-12-11T00:09:06.967Z,8.77
2022-12-11T00:12:48.841Z,9.98
2022-12-11T00:16:30.615Z,8.55
2022-12-11T00:20:12.419Z,10.90
2022-12-11T00:23:54.173Z,9.30
2022-12-11T00:27:36.174Z,9.82
2022-12-11T00:31:19.844Z,10.48
2022-12-11T00:35:02.543Z,12.48
2022-12-11T00:38:44.578Z,13.45
2022-12-11T00:42:26.320Z,10.27
2022-12-11T00:46:08.239Z,10.55
2022-12-11T00:49:50.384Z,10.82
2022-12-11T00:53:32.182Z,9.45
2022-12-11T00:57:13.896Z,10.43
2022-12-11T01:00:55.722Z,11.02
2022-12-11T01:04:37.511Z,9.52
2022-12-11T01:08:19.636Z,10.38
2022-12-11T01:12:02.601Z,11.02
2022-12-11T01:15:45.556Z,11.00
2022-12-11T01:19:27.344Z,12.32
2022-12-11T01:23:12.494Z,12.55
2022-12-11T01:26:54.218Z,11.55
2022-12-11T01:30:36.595Z,10.80
2022-12-11T01:34:18.409Z,10.93
2022-12-11T01:38:00.238Z,10.00
2022-12-11T01:41:41.978Z,9.70
2022-12-11T01:45:56.006Z,11.00
2022-12-11T01:49:40.166Z,11.15
2022-12-11T01:53:27.584Z,11.07
2022-12-11T02:00:53.949Z,12.23
2022-12-11T02:04:38.317Z,16.98
2022-12-11T02:08:20.614Z,15.52
2022-12-11T02:12:14.670Z,11.25
2022-12-11T02:16:05.939Z,10.02
2022-12-11T02:20:05.914Z,10.48
2022-12-11T02:24:24.776Z,9.82
2022-12-11T02:28:26.866Z,10.15
2022-12-11T02:32:26.474Z,9.13
2022-12-11T02:36:10.058Z,9.25
2022-12-11T02:39:55.070Z,8.25
2022-12-11T02:43:38.253Z,9.70
2022-12-11T02:47:21.233Z,9.38
2022-12-11T02:51:05.126Z,12.60
2022-12-11T02:54:47.935Z,13.55
2022-12-11T02:58:34.571Z,12.77
2022-12-11T03:02:17.652Z,13.53
2022-12-11T03:05:59.895Z,15.20
2022-12-11T03:09:47.125Z,14.68
2022-12-11T03:13:29.841Z,15.20
2022-12-11T03:17:19.950Z,13.98
2022-12-11T03:21:33.240Z,14.68
2022-12-11T03:25:26.009Z,13.90
2022-12-11T03:29:21.873Z,14.30
2022-12-11T03:33:09.174Z,13.82
2022-12-11T03:36:53.397Z,12.80
2022-12-11T03:40:36.917Z,13.63
2022-12-11T03:44:20.837Z,14.77
2022-12-11T03:48:03.236Z,14.77
2022-12-11T03:51:48.260Z,13.32
2022-12-11T03:55:32.607Z,14.35
2022-12-11T03:59:14.439Z,12.45
2022-12-11T04:03:15.055Z,13.90
2022-12-11T04:06:56.978Z,13.00
2022-12-11T04:10:39.579Z,13.48
2022-12-11T04:14:40.046Z,13.38
2022-12-11T04:18:40.406Z,13.75
2022-12-11T04:22:43.248Z,13.63
2022-12-11T04:26:25.194Z,12.98
2022-12-11T04:30:10.292Z,14.55
2022-12-11T04:33:52.168Z,13.85
2022-12-11T04:37:34.354Z,14.57
2022-12-11T04:41:16.787Z,15.93
2022-12-11T04:44:58.542Z,13.40
2022-12-11T04:48:41.067Z,13.93
2022-12-11T04:52:22.899Z,14.80
2022-12-11T04:56:13.658Z,13.35
2022-12-11T04:59:55.464Z,12.50
2022-12-11T05:03:37.288Z,12.93
2022-12-11T05:07:19.139Z,13.55
2022-12-11T05:11:03.821Z,12.55
2022-12-11T05:14:45.717Z,13.45
2022-12-11T05:18:27.462Z,12.07
2022-12-11T05:22:09.202Z,13.40
2022-12-11T05:26:08.869Z,12.95
2022-12-11T05:29:53.658Z,13.70
2022-12-11T05:33:39.782Z,12.40
2022-12-11T05:37:21.800Z,13.20
2022-12-11T05:41:06.181Z,13.05
2022-12-11T05:44:49.777Z,12.23
2022-12-11T05:48:31.502Z,13.52
2022-12-11T05:52:13.243Z,12.82
2022-12-11T05:55:55.464Z,11.88
2022-12-11T05:59:37.220Z,13.70
2022-12-11T06:03:18.995Z,12.23
2022-12-11T06:07:00.790Z,14.43
2022-12-11T06:10:49.499Z,12.85
2022-12-11T06:14:31.263Z,13.45
2022-12-11T06:18:13.093Z,12.23
2022-12-11T06:21:55.092Z,13.25
2022-12-11T06:25:39.915Z,13.73
2022-12-11T06:29:21.651Z,13.38
2022-12-11T06:33:03.524Z,13.10
2022-12-11T06:36:45.337Z,13.93
2022-12-11T06:40:27.245Z,14.00
2022-12-11T06:44:09.490Z,13.52
2022-12-11T06:47:51.204Z,13.40
2022-12-11T06:51:33.007Z,14.30
2022-12-11T06:55:14.780Z,13.93
2022-12-11T06:58:57.202Z,14.20
2022-12-11T07:02:39.107Z,15.13
2022-12-11T07:06:20.910Z,16.80
2022-12-11T07:10:07.917Z,14.52
2022-12-11T07:13:50.777Z,15.70
2022-12-11T07:17:32.545Z,15.20
2022-12-11T07:21:15.073Z,15.73
2022-12-11T07:24:56.962Z,14.57
2022-12-11T07:28:39.342Z,13.70
2022-12-11T07:32:21.389Z,13.00
2022-12-11T07:36:05.856Z,13.20
2022-12-11T07:39:49.002Z,13.07
2022-12-11T07:43:30.990Z,12.63
2022-12-11T07:47:12.725Z,12.20
2022-12-11T07:50:54.459Z,10.73
2022-12-11T07:54:36.203Z,10.85
2022-12-11T07:58:18.034Z,11.57
2022-12-11T08:01:59.805Z,11.20
2022-12-11T08:05:50.614Z,13.30
2022-12-11T08:09:32.393Z,11.30
2022-12-11T08:13:14.460Z,11.43
2022-12-11T08:16:57.475Z,10.85
2022-12-11T08:20:39.499Z,11.63
2022-12-11T08:24:21.316Z,9.55
2022-12-11T08:28:03.230Z,9.68
2022-12-11T08:31:45.246Z,9.27
2022-12-11T08:35:27.243Z,11.55
2022-12-11T08:39:09.054Z,11.02
2022-12-11T08:42:51.715Z,10.35
2022-12-11T08:46:33.689Z,10.38
2022-12-11T08:50:15.573Z,10.60
2022-12-11T08:53:59.205Z,10.40
2022-12-11T08:57:40.986Z,10.50
2022-12-11T09:01:25.700Z,11.10
2022-12-11T09:05:09.728Z,11.50
2022-12-11T09:08:53.793Z,11.30
2022-12-11T09:12:35.965Z,11.52
2022-12-11T09:16:20.703Z,9.50
2022-12-11T09:20:02.601Z,10.80
2022-12-11T09:23:44.729Z,11.15
2022-12-11T09:27:26.466Z,9.65
2022-12-11T09:31:13.127Z,10.90
2022-12-11T09:34:54.947Z,11.63
2022-12-11T09:38:37.137Z,11.63
2022-12-11T09:42:33.807Z,11.98
2022-12-11T09:46:17.484Z,13.52
2022-12-11T09:50:15.327Z,15.82
2022-12-11T09:54:01.170Z,15.45
2022-12-11T09:57:55.896Z,13.05
2022-12-11T10:01:53.328Z,14.73
2022-12-11T10:05:45.294Z,14.25
2022-12-11T10:09:39.209Z,12.18
2022-12-11T10:13:30.444Z,11.75
2022-12-11T10:17:32.190Z,12.32
2022-12-11T10:21:16.899Z,13.65
2022-12-11T10:25:11.236Z,13.43
2022-12-11T10:28:54.294Z,15.30
2022-12-11T10:32:54.365Z,13.80
2022-12-11T10:36:38.830Z,13.48
2022-12-11T10:40:22.013Z,16.15
2022-12-11T10:44:16.590Z,16.48
2022-12-11T10:48:07.273Z,15.48
2022-12-11T10:51:50.037Z,14.35
2022-12-11T10:55:45.003Z,15.85
2022-12-11T10:59:46.469Z,15.48
2022-12-11T11:03:29.452Z,14.73
2022-12-11T11:07:15.438Z,15.35
2022-12-11T11:10:59.357Z,15.52
2022-12-11T11:14:41.275Z,17.50
2022-12-11T11:18:28.311Z,15.88
2022-12-11T11:22:16.255Z,16.10
2022-12-11T11:26:01.161Z,13.48
2022-12-11T11:29:45.758Z,15.20
2022-12-11T11:33:32.988Z,14.40
2022-12-11T11:37:32.611Z,13.80
2022-12-11T11:41:46.598Z,15.95
2022-12-11T11:45:53.323Z,16.02
2022-12-11T11:50:00.054Z,14.20
2022-12-11T11:53:47.495Z,13.10
2022-12-11T12:01:30.048Z,13.98
2022-12-11T12:05:17.340Z,13.73
2022-12-11T12:09:17.679Z,14.52
2022-12-11T12:13:44.756Z,15.43
2022-12-11T12:17:38.754Z,12.50
2022-12-11T12:21:36.569Z,12.85
2022-12-11T12:25:55.867Z,13.45
2022-12-11T12:30:05.047Z,15.25
2022-12-11T12:34:11.270Z,13.60
2022-12-11T12:38:14.104Z,14.43
2022-12-11T12:42:12.654Z,14.63
2022-12-11T12:46:17.909Z,14.98
2022-12-11T12:50:01.297Z,13.80
2022-12-11T12:53:52.293Z,15.07
2022-12-11T12:57:35.179Z,14.55
2022-12-11T13:01:26.189Z,15.70
2022-12-11T13:05:24.368Z,14.15
2022-12-11T13:09:18.335Z,14.93
2022-12-11T13:13:01.522Z,15.32
2022-12-11T13:16:53.077Z,17.27
2022-12-11T13:20:47.123Z,17.13
2022-12-11T13:24:31.263Z,16.25
2022-12-11T13:28:47.253Z,17.63
2022-12-11T13:32:31.350Z,17.80
2022-12-11T13:36:16.880Z,18.70
2022-12-11T13:40:05.595Z,17.90
2022-12-11T13:43:49.571Z,22.60
2022-12-11T13:47:33.007Z,21.27
2022-12-11T13:51:20.494Z,22.17
2022-12-11T13:58:44.187Z,20.70
2022-12-11T14:02:44.234Z,21.40
2022-12-11T14:06:28.547Z,22.73
2022-12-11T14:10:24.910Z,22.15
2022-12-11T14:14:17.658Z,22.92
2022-12-11T14:18:00.918Z,22.73
2022-12-11T14:21:42.875Z,21.08
2022-12-11T14:25:27.064Z,21.20
2022-12-11T14:29:33.298Z,20.05
2022-12-11T14:33:16.958Z,19.90
2022-12-11T14:37:00.273Z,20.45
2022-12-11T14:40:45.238Z,19.65
2022-12-11T14:44:33.410Z,20.73
2022-12-11T14:48:33.487Z,20.42
2022-12-11T14:52:22.100Z,21.77
2022-12-11T14:56:08.363Z,19.70
2022-12-11T14:59:52.706Z,21.60
2022-12-11T15:03:37.374Z,20.25
2022-12-11T15:07:22.043Z,20.95
2022-12-11T15:11:17.578Z,22.10
2022-12-11T15:15:04.102Z,22.23
2022-12-11T15:18:50.158Z,20.87
2022-12-11T15:22:32.811Z,22.92
2022-12-11T15:26:14.716Z,25.38
2022-12-11T15:29:56.992Z,25.92
2022-12-11T15:33:47.793Z,26.58
2022-12-11T15:37:36.599Z,27.42
2022-12-11T15:41:24.721Z,24.60
2022-12-11T15:45:12.048Z,26.23
2022-12-11T15:52:37.294Z,24.55
2022-12-11T15:56:22.161Z,24.08
2022-12-11T16:00:08.091Z,21.20
2022-12-11T16:03:50.454Z,23.42
2022-12-11T16:07:32.662Z,21.08
2022-12-11T16:11:14.413Z,26.45
2022-12-11T16:14:56.169Z,23.27
2022-12-11T16:18:37.988Z,24.27
2022-12-11T16:22:19.678Z,21.48
2022-12-11T16:26:07.123Z,20.30
2022-12-11T16:33:31.276Z,20.35
2022-12-11T16:37:14.133Z,18.30
2022-12-11T16:41:02.089Z,18.08
2022-12-11T16:44:44.467Z,19.70
2022-12-11T16:48:26.734Z,19.08
2022-12-11T16:52:10.716Z,19.77
2022-12-11T16:55:52.633Z,18.30
2022-12-11T16:59:37.807Z,18.30
2022-12-11T17:03:20.114Z,18.00
2022-12-11T17:07:01.884Z,18.88
2022-12-11T17:10:43.910Z,19.15
2022-12-11T17:14:25.641Z,19.63
2022-12-11T17:18:07.483Z,18.42
2022-12-11T17:21:51.793Z,19.60
2022-12-11T17:25:33.698Z,18.30
2022-12-11T17:29:15.472Z,18.25
2022-12-11T17:32:57.325Z,17.90
2022-12-11T17:36:39.113Z,17.98
2022-12-11T17:40:22.774Z,18.98
2022-12-11T17:44:04.749Z,19.58
2022-12-11T17:47:46.514Z,17.55
2022-12-11T17:51:28.658Z,18.27
2022-12-11T17:55:11.122Z,17.73
2022-12-11T17:58:53.459Z,16.92
2022-12-11T18:02:35.637Z,18.58
2022-12-11T18:06:17.618Z,18.73
2022-12-11T18:09:59.441Z,19.48
2022-12-11T18:13:41.621Z,17.80
2022-12-11T18:17:23.567Z,18.50
2022-12-11T18:21:05.966Z,18.90
2022-12-11T18:24:47.874Z,18.08
2022-12-11T18:28:31.793Z,20.60
2022-12-11T18:32:13.522Z,21.15
2022-12-11T18:35:55.266Z,22.08
2022-12-11T18:39:37.007Z,19.88
2022-12-11T18:43:18.807Z,20.67
2022-12-11T18:47:00.694Z,21.55
2022-12-11T18:50:46.873Z,21.38
2022-12-11T18:54:28.723Z,18.75
2022-12-11T18:58:12.035Z,19.33
2022-12-11T19:01:53.994Z,20.98
2022-12-11T19:05:36.464Z,21.33
2022-12-11T19:09:18.298Z,27.88
2022-12-11T19:13:02.332Z,21.20
2022-12-11T19:16:45.750Z,21.73
2022-12-11T19:24:29.449Z,20.33
2022-12-11T19:28:11.709Z,20.67
2022-12-11T19:31:55.545Z,20.85
2022-12-11T19:35:37.472Z,19.27
2022-12-11T19:39:19.990Z,18.63
2022-12-11T19:43:01.863Z,18.75
2022-12-11T19:46:43.752Z,19.33
2022-12-11T19:50:25.648Z,18.75
2022-12-11T19:54:09.351Z,19.40
2022-12-11T19:57:52.647Z,18.17
2022-12-11T20:01:37.043Z,17.42
2022-12-11T20:05:19.103Z,17.73
2022-12-11T20:09:01.829Z,17.15
2022-12-11T20:12:43.825Z,16.35
2022-12-11T20:16:46.394Z,16.05
2022-12-11T20:20:29.806Z,17.77
2022-12-11T20:24:11.831Z,16.33
2022-12-11T20:27:55.668Z,14.75
2022-12-11T20:31:37.615Z,14.43
2022-12-11T20:35:19.961Z,14.93
2022-12-11T20:39:01.752Z,16.38
2022-12-11T20:42:45.657Z,15.93
2022-12-11T20:46:27.846Z,16.52
2022-12-11T20:50:11.319Z,15.15
2022-12-11T20:53:59.577Z,13.25
2022-12-11T20:57:45.029Z,14.55
2022-12-11T21:01:30.092Z,14.50
2022-12-11T21:05:12.073Z,15.05
2022-12-11T21:08:54.189Z,16.13
2022-12-11T21:12:38.278Z,14.80
2022-12-11T21:16:21.084Z,15.40
2022-12-11T21:20:03.343Z,16.65
2022-12-11T21:23:45.582Z,15.80
2022-12-11T21:27:27.461Z,13.65
2022-12-11T21:31:13.121Z,14.07
2022-12-11T21:34:56.991Z,12.05
2022-12-11T21:38:40.034Z,12.63
2022-12-11T21:42:21.926Z,13.30
2022-12-11T21:46:04.414Z,12.93
2022-12-11T21:49:46.768Z,11.25
2022-12-11T21:53:28.534Z,10.98
2022-12-11T21:57:10.407Z,9.52
2022-12-11T22:00:52.187Z,9.77
2022-12-11T22:04:34.048Z,9.77
2022-12-11T22:08:15.871Z,11.52
2022-12-11T22:11:58.763Z,10.70
2022-12-11T22:15:40.829Z,9.77
2022-12-11T22:19:25.623Z,10.65
2022-12-11T22:23:11.263Z,11.70
2022-12-11T22:26:53.026Z,12.07
2022-12-11T22:30:34.890Z,11.40
2022-12-11T22:34:16.906Z,12.88
2022-12-11T22:37:58.918Z,11.77
2022-12-11T22:41:42.428Z,13.70
2022-12-11T22:45:24.545Z,12.38
2022-12-11T22:49:06.646Z,13.65
2022-12-11T22:52:48.507Z,12.23
2022-12-11T22:56:30.481Z,12.90
2022-12-11T23:00:14.172Z,12.40
2022-12-11T23:03:56.084Z,11.73
2022-12-11T23:07:38.437Z,12.27
2022-12-11T23:11:30.002Z,13.48
2022-12-11T23:15:12.564Z,13.13
2022-12-11T23:18:56.095Z,13.55
2022-12-11T23:22:38.083Z,13.60
2022-12-11T23:26:20.594Z,13.55
2022-12-11T23:30:02.365Z,13.63
2022-12-11T23:33:44.690Z,12.23
2022-12-11T23:37:26.479Z,11.75
2022-12-11T23:41:10.215Z,13.48
2022-12-11T23:44:51.933Z,13.95
2022-12-11T23:48:33.806Z,13.93
2022-12-11T23:52:15.611Z,13.07
2022-12-11T23:56:06.157Z,13.18
2022-12-11T23:59:47.934Z,12.85
